EGUN

RAF Mildenhall Airport

Mildenhall, United Kingdom
METAR EGUN 222056Z AUTO 25013KT 9999 CLR 14/14 A2981 RMK AO2 SLP098 T01360136 52020 $
Observed Flight Rules
Apr-22 @ 20:56 UTC (43 minutes ago) Visual Flight Rules
Wind Visibility Clouds
250° at 13 knots 10,000+ meters
  • Clear skies
Temperatures Readings
Current 14°C / 57°F
Dewpoint 14°C / 57°F
Humidity 100%
Altimeter 29.81" Hg
Pressure 1009.8 hPa
Elevation 10
METAR EGUN 222056Z AUTO 25013KT 9999 CLR 14/14 A2981 RMK AO2 SLP098 T01360136 52020 $
Observed Flight Rules
Apr-22 @ 20:56 UTC
(43 minutes ago)
VFR
Wind Visibility
250° at 13 knots 10,000+ meters
Clouds
  • Clear skies
Temperature Dewpoint
14°C / 57°F 14°C / 57°F
Humidity Altimeter Pressure
100% 29.81" Hg 1009.8 hPa